sensor_id;sensor_type;location;lat;lon;timestamp;temperature;humidity
51091;DHT22;37136;43.614;3.908;2022-08-19T18:01:43;28.60;99.90
51091;DHT22;37136;43.614;3.908;2022-08-19T18:04:09;27.80;99.90
51091;DHT22;37136;43.614;3.908;2022-08-19T18:06:35;27.70;99.90
51091;DHT22;37136;43.614;3.908;2022-08-19T18:09:04;27.60;99.90
51091;DHT22;37136;43.614;3.908;2022-08-19T18:11:30;27.60;99.90
51091;DHT22;37136;43.614;3.908;2022-08-19T18:13:56;27.50;99.90
51091;DHT22;37136;43.614;3.908;2022-08-19T18:16:22;27.40;99.90
51091;DHT22;37136;43.614;3.908;2022-08-19T18:18:48;27.30;99.90
51091;DHT22;37136;43.614;3.908;2022-08-19T18:21:16;27.30;99.90
51091;DHT22;37136;43.614;3.908;2022-08-19T18:23:42;27.30;99.90
51091;DHT22;37136;43.614;3.908;2022-08-19T18:26:08;27.20;99.90
51091;DHT22;37136;43.614;3.908;2022-08-19T18:28:34;27.10;99.90
51091;DHT22;37136;43.614;3.908;2022-08-19T18:31:00;27.10;99.90
51091;DHT22;37136;43.614;3.908;2022-08-19T18:33:28;27.00;99.90
51091;DHT22;37136;43.614;3.908;2022-08-19T18:35:53;26.90;99.90
51091;DHT22;37136;43.614;3.908;2022-08-19T18:38:21;26.90;99.90
51091;DHT22;37136;43.614;3.908;2022-08-19T18:41:06;26.70;99.90
51091;DHT22;37136;43.614;3.908;2022-08-19T18:43:51;26.70;99.90
51091;DHT22;37136;43.614;3.908;2022-08-19T18:46:35;26.60;99.90
51091;DHT22;37136;43.614;3.908;2022-08-19T18:49:28;26.60;99.90
51091;DHT22;37136;43.614;3.908;2022-08-19T18:51:55;26.60;99.90
51091;DHT22;37136;43.614;3.908;2022-08-19T18:54:22;26.50;99.90
51091;DHT22;37136;43.614;3.908;2022-08-19T18:56:48;26.50;99.90
51091;DHT22;37136;43.614;3.908;2022-08-19T18:59:23;26.40;99.90
51091;DHT22;37136;43.614;3.908;2022-08-19T19:01:51;26.30;99.90
51091;DHT22;37136;43.614;3.908;2022-08-19T19:04:26;26.30;99.90
51091;DHT22;37136;43.614;3.908;2022-08-19T19:06:53;26.20;99.90
51091;DHT22;37136;43.614;3.908;2022-08-19T19:09:21;26.20;99.90
51091;DHT22;37136;43.614;3.908;2022-08-19T19:11:53;26.10;99.90
51091;DHT22;37136;43.614;3.908;2022-08-19T19:14:22;26.10;99.90
51091;DHT22;37136;43.614;3.908;2022-08-19T19:16:50;26.00;99.90
51091;DHT22;37136;43.614;3.908;2022-08-19T19:19:16;25.90;99.90
51091;DHT22;37136;43.614;3.908;2022-08-19T19:21:44;25.90;99.90
51091;DHT22;37136;43.614;3.908;2022-08-19T19:24:16;25.80;99.90
51091;DHT22;37136;43.614;3.908;2022-08-19T19:26:42;25.80;99.90
51091;DHT22;37136;43.614;3.908;2022-08-19T19:29:11;25.70;99.90
51091;DHT22;37136;43.614;3.908;2022-08-19T19:31:37;25.70;99.90
51091;DHT22;37136;43.614;3.908;2022-08-19T19:34:04;25.60;99.90
51091;DHT22;37136;43.614;3.908;2022-08-19T19:36:30;25.60;99.90
51091;DHT22;37136;43.614;3.908;2022-08-19T19:38:55;25.60;99.90
51091;DHT22;37136;43.614;3.908;2022-08-19T19:41:22;25.50;99.90
51091;DHT22;37136;43.614;3.908;2022-08-19T19:43:50;25.50;99.90
51091;DHT22;37136;43.614;3.908;2022-08-19T19:46:16;25.40;99.90
51091;DHT22;37136;43.614;3.908;2022-08-19T19:48:43;25.30;99.90
51091;DHT22;37136;43.614;3.908;2022-08-19T19:51:09;25.30;99.90
51091;DHT22;37136;43.614;3.908;2022-08-19T19:53:35;25.30;99.90
51091;DHT22;37136;43.614;3.908;2022-08-19T19:56:01;25.30;99.90
51091;DHT22;37136;43.614;3.908;2022-08-19T19:58:30;25.30;99.90
51091;DHT22;37136;43.614;3.908;2022-08-19T20:00:57;25.20;99.90
51091;DHT22;37136;43.614;3.908;2022-08-19T20:03:24;25.10;99.90
51091;DHT22;37136;43.614;3.908;2022-08-19T20:05:50;25.10;99.90
51091;DHT22;37136;43.614;3.908;2022-08-19T20:08:17;25.10;99.90
51091;DHT22;37136;43.614;3.908;2022-08-19T20:11:04;25.00;99.90
51091;DHT22;37136;43.614;3.908;2022-08-19T20:13:30;25.00;99.90
51091;DHT22;37136;43.614;3.908;2022-08-19T20:15:57;25.00;99.90
51091;DHT22;37136;43.614;3.908;2022-08-19T20:18:23;25.00;99.90
51091;DHT22;37136;43.614;3.908;2022-08-19T20:20:49;24.90;99.90
51091;DHT22;37136;43.614;3.908;2022-08-19T20:23:20;24.90;99.90
51091;DHT22;37136;43.614;3.908;2022-08-19T20:25:47;24.90;99.90
51091;DHT22;37136;43.614;3.908;2022-08-19T20:28:14;24.90;99.90
51091;DHT22;37136;43.614;3.908;2022-08-19T20:30:40;24.90;99.90
51091;DHT22;37136;43.614;3.908;2022-08-19T20:33:07;24.90;99.90
51091;DHT22;37136;43.614;3.908;2022-08-19T20:35:34;24.80;99.90
51091;DHT22;37136;43.614;3.908;2022-08-19T20:38:01;24.90;99.90
51091;DHT22;37136;43.614;3.908;2022-08-19T20:40:28;24.80;99.90
51091;DHT22;37136;43.614;3.908;2022-08-19T20:42:55;24.80;99.90
51091;DHT22;37136;43.614;3.908;2022-08-19T20:45:23;24.80;99.90
51091;DHT22;37136;43.614;3.908;2022-08-19T20:47:49;24.70;99.90
51091;DHT22;37136;43.614;3.908;2022-08-19T20:50:15;24.60;99.90
51091;DHT22;37136;43.614;3.908;2022-08-19T20:52:42;24.70;99.90
51091;DHT22;37136;43.614;3.908;2022-08-19T20:55:09;24.60;99.90
51091;DHT22;37136;43.614;3.908;2022-08-19T20:57:36;24.60;99.90
51091;DHT22;37136;43.614;3.908;2022-08-19T21:00:04;24.60;99.90
51091;DHT22;37136;43.614;3.908;2022-08-19T21:02:31;24.50;99.90
51091;DHT22;37136;43.614;3.908;2022-08-19T21:04:57;24.50;99.90
51091;DHT22;37136;43.614;3.908;2022-08-19T21:07:23;24.50;99.90
51091;DHT22;37136;43.614;3.908;2022-08-19T21:09:49;24.50;99.90
51091;DHT22;37136;43.614;3.908;2022-08-19T21:12:16;24.50;99.90
51091;DHT22;37136;43.614;3.908;2022-08-19T21:14:44;24.50;99.90
51091;DHT22;37136;43.614;3.908;2022-08-19T21:17:11;24.50;99.90
51091;DHT22;37136;43.614;3.908;2022-08-19T21:19:37;24.50;99.90
51091;DHT22;37136;43.614;3.908;2022-08-19T21:22:03;24.40;99.90
51091;DHT22;37136;43.614;3.908;2022-08-19T21:24:30;24.40;99.90
51091;DHT22;37136;43.614;3.908;2022-08-19T21:26:55;24.40;99.90
51091;DHT22;37136;43.614;3.908;2022-08-19T21:29:21;24.40;99.90
51091;DHT22;37136;43.614;3.908;2022-08-19T21:31:48;24.30;99.90
51091;DHT22;37136;43.614;3.908;2022-08-19T21:34:15;24.30;99.90
51091;DHT22;37136;43.614;3.908;2022-08-19T21:36:41;24.30;99.90
51091;DHT22;37136;43.614;3.908;2022-08-19T21:39:07;24.30;99.90
51091;DHT22;37136;43.614;3.908;2022-08-19T21:41:33;24.20;99.90
51091;DHT22;37136;43.614;3.908;2022-08-19T21:43:59;24.20;99.90
51091;DHT22;37136;43.614;3.908;2022-08-19T21:46:26;24.20;99.90
51091;DHT22;37136;43.614;3.908;2022-08-19T21:48:52;24.10;99.90
51091;DHT22;37136;43.614;3.908;2022-08-19T21:51:18;24.10;99.90
51091;DHT22;37136;43.614;3.908;2022-08-19T21:53:44;24.20;99.90
51091;DHT22;37136;43.614;3.908;2022-08-19T21:56:10;24.10;99.90
51091;DHT22;37136;43.614;3.908;2022-08-19T21:58:37;24.20;99.90
51091;DHT22;37136;43.614;3.908;2022-08-19T22:01:04;24.10;99.90
51091;DHT22;37136;43.614;3.908;2022-08-19T22:03:33;24.10;99.90
51091;DHT22;37136;43.614;3.908;2022-08-19T22:05:59;24.00;99.90
51091;DHT22;37136;43.614;3.908;2022-08-19T22:08:26;24.00;1.00
51091;DHT22;37136;43.614;3.908;2022-08-19T22:10:52;24.00;1.00
51091;DHT22;37136;43.614;3.908;2022-08-19T22:13:18;24.00;1.00
51091;DHT22;37136;43.614;3.908;2022-08-19T22:15:45;23.90;1.00
51091;DHT22;37136;43.614;3.908;2022-08-19T22:18:11;23.90;1.00
51091;DHT22;37136;43.614;3.908;2022-08-19T22:20:38;23.90;1.00
51091;DHT22;37136;43.614;3.908;2022-08-19T22:23:06;23.80;1.00
51091;DHT22;37136;43.614;3.908;2022-08-19T22:25:38;23.80;1.00
51091;DHT22;37136;43.614;3.908;2022-08-19T22:28:08;23.70;1.00
51091;DHT22;37136;43.614;3.908;2022-08-19T22:30:35;23.70;1.00
51091;DHT22;37136;43.614;3.908;2022-08-19T22:33:05;23.60;1.00
51091;DHT22;37136;43.614;3.908;2022-08-19T22:35:33;23.60;1.00
51091;DHT22;37136;43.614;3.908;2022-08-19T22:38:00;23.60;1.00
51091;DHT22;37136;43.614;3.908;2022-08-19T22:40:28;23.60;1.00
51091;DHT22;37136;43.614;3.908;2022-08-19T22:43:04;23.60;1.00
51091;DHT22;37136;43.614;3.908;2022-08-19T22:45:31;23.50;1.00
51091;DHT22;37136;43.614;3.908;2022-08-19T22:47:58;23.50;1.00
51091;DHT22;37136;43.614;3.908;2022-08-19T22:50:25;23.40;1.00
51091;DHT22;37136;43.614;3.908;2022-08-19T22:52:58;23.40;1.00
51091;DHT22;37136;43.614;3.908;2022-08-19T22:55:25;23.30;1.00
51091;DHT22;37136;43.614;3.908;2022-08-19T22:57:52;23.30;1.00
51091;DHT22;37136;43.614;3.908;2022-08-19T23:00:18;23.30;1.00
51091;DHT22;37136;43.614;3.908;2022-08-19T23:02:45;23.30;1.00
51091;DHT22;37136;43.614;3.908;2022-08-19T23:05:12;23.30;1.00
51091;DHT22;37136;43.614;3.908;2022-08-19T23:07:41;23.30;1.00
51091;DHT22;37136;43.614;3.908;2022-08-19T23:10:09;23.30;1.00
51091;DHT22;37136;43.614;3.908;2022-08-19T23:12:38;23.30;1.00
51091;DHT22;37136;43.614;3.908;2022-08-19T23:15:17;23.20;1.00
51091;DHT22;37136;43.614;3.908;2022-08-19T23:17:43;23.20;1.00
51091;DHT22;37136;43.614;3.908;2022-08-19T23:20:11;23.30;1.00
51091;DHT22;37136;43.614;3.908;2022-08-19T23:22:43;23.30;1.00
51091;DHT22;37136;43.614;3.908;2022-08-19T23:25:17;23.30;1.00
51091;DHT22;37136;43.614;3.908;2022-08-19T23:27:44;23.30;1.00
51091;DHT22;37136;43.614;3.908;2022-08-19T23:30:30;23.40;1.00
51091;DHT22;37136;43.614;3.908;2022-08-19T23:32:59;23.30;1.00
51091;DHT22;37136;43.614;3.908;2022-08-19T23:35:31;23.30;1.00
51091;DHT22;37136;43.614;3.908;2022-08-19T23:37:57;23.30;1.00
51091;DHT22;37136;43.614;3.908;2022-08-19T23:40:23;23.20;1.00
51091;DHT22;37136;43.614;3.908;2022-08-19T23:42:50;23.30;1.00
51091;DHT22;37136;43.614;3.908;2022-08-19T23:45:17;23.30;1.00
51091;DHT22;37136;43.614;3.908;2022-08-19T23:47:46;23.20;1.00
51091;DHT22;37136;43.614;3.908;2022-08-19T23:50:13;23.20;1.00
51091;DHT22;37136;43.614;3.908;2022-08-19T23:52:45;23.20;1.00
51091;DHT22;37136;43.614;3.908;2022-08-19T23:55:12;23.20;1.00
51091;DHT22;37136;43.614;3.908;2022-08-19T23:57:38;23.20;1.00
